Ramore, Canada
Current Conditions -  °F | °C
As of 11:00 AM on Thursday 30 Oct 2014 (Local Time) from CYTS Reporting Station
Overcast Overcast  
Wind Chill: -6°   Ceiling: 2000
Heat Index: -2°   Visibility: 15mi
Dew Point: -5°   Wind: 8mph
Humidity: 80%   Direction: 280°W
Pressure: 30.03"   Gusts: NA
Location:  48.42°N, 80.32°W
Report Text: CYTS 301500Z 28007KT 230V300 15SM OVC020 M02/M05 A3003 RMK SC8 SLP185
Loading
Personal Weather Stations






























Interactive Weather Map
Tropical Storm Tracking
New forecast layout! Learn more

10-Day Weather Forecast

Advertisements
Track Severe Weather on mobile